Time;durP1;ratioP1;P1;durP2;ratioP2;P2;SDS_P1;SDS_P2;PMS_P1;PMS_P2;Temp;Humidity;BMP_temperature;BMP_pressure;BME280_temperature;BME280_humidity;BME280_pressure;Samples;Min_cycle;Max_cycle;Signal;HPM_P1;HPM_P2
2022/06/22 00:16:29;;;;;;;3.27;2.60;;;16.40;92.60;;;;;;5155753;28;20816;-49
2022/06/22 00:19:00;;;;;;;4.63;2.00;;;16.30;93.50;;;;;;5159603;28;20648;-48
2022/06/22 00:21:36;;;;;;;1.70;1.67;;;16.30;90.20;;;;;;5163394;28;20435;-47
2022/06/22 00:24:21;;;;;;;1.93;1.83;;;16.40;84.50;;;;;;5164222;28;20514;-47
2022/06/22 00:27:14;;;;;;;1.70;1.60;;;16.50;81.90;;;;;;5164097;28;20633;-48
2022/06/22 00:29:58;;;;;;;1.57;1.50;;;16.50;80.20;;;;;;5167704;28;20446;-49
2022/06/22 00:32:29;;;;;;;2.23;2.00;;;16.60;79.70;;;;;;5152952;28;20439;-50
2022/06/22 00:35:35;;;;;;;5.90;1.83;;;16.60;80.30;;;;;;5152792;28;20439;-50
2022/06/22 00:38:06;;;;;;;6.67;2.23;;;16.60;78.00;;;;;;5162062;28;20608;-49
2022/06/22 00:40:37;;;;;;;2.70;2.47;;;16.50;77.90;;;;;;5167592;28;20502;-50
2022/06/22 00:43:14;;;;;;;2.03;1.90;;;16.50;76.70;;;;;;5156466;28;20475;-49
2022/06/22 00:45:46;;;;;;;4.73;1.53;;;16.50;77.90;;;;;;5164764;28;20818;-50
2022/06/22 00:48:31;;;;;;;1.43;1.23;;;16.50;77.20;;;;;;5167751;28;20557;-50
2022/06/22 00:51:06;;;;;;;1.50;1.40;;;16.40;75.60;;;;;;5162693;28;20444;-51
2022/06/22 00:53:44;;;;;;;2.57;1.57;;;16.40;75.40;;;;;;5157774;28;20438;-48
2022/06/22 00:56:37;;;;;;;2.40;1.33;;;16.40;74.10;;;;;;5158808;28;20863;-50
2022/06/22 00:59:30;;;;;;;2.00;1.30;;;16.40;73.30;;;;;;5161479;28;20448;-50
2022/06/22 01:02:13;;;;;;;2.73;1.47;;;16.40;72.40;;;;;;5159977;28;20613;-50
2022/06/22 01:04:57;;;;;;;8.47;1.80;;;16.40;72.20;;;;;;5175288;28;21004;-49
2022/06/22 01:07:42;;;;;;;2.87;1.13;;;16.40;71.90;;;;;;5161656;28;20530;-50
2022/06/22 01:10:26;;;;;;;4.37;1.63;;;16.40;72.20;;;;;;5158802;28;20436;-49
2022/06/22 01:13:24;;;;;;;2.97;1.20;;;16.40;72.50;;;;;;5164428;28;20435;-49
2022/06/22 01:16:03;;;;;;;1.57;1.47;;;16.30;73.30;;;;;;5158517;28;20790;-50
2022/06/22 01:18:40;;;;;;;1.40;1.40;;;16.20;73.00;;;;;;5150274;28;20476;-50
2022/06/22 01:21:26;;;;;;;3.90;1.87;;;16.20;73.30;;;;;;5159796;28;20463;-49
2022/06/22 01:24:12;;;;;;;2.77;1.07;;;16.20;73.50;;;;;;5165724;28;20455;-49
2022/06/22 01:27:01;;;;;;;1.40;1.23;;;16.10;74.00;;;;;;5157534;28;20557;-48
2022/06/22 01:29:32;;;;;;;3.27;1.50;;;16.10;74.00;;;;;;5148022;28;20425;-49
2022/06/22 01:32:07;;;;;;;2.67;1.60;;;16.10;74.00;;;;;;5170276;28;20451;-50
2022/06/22 01:34:42;;;;;;;3.50;1.80;;;16.10;74.30;;;;;;5163042;28;20268;-49
2022/06/22 01:37:16;;;;;;;4.90;1.57;;;16.00;74.70;;;;;;5160685;28;20531;-50
2022/06/22 01:39:47;;;;;;;2.83;1.57;;;16.00;74.80;;;;;;5170644;28;21082;-48
2022/06/22 01:42:30;;;;;;;1.17;1.07;;;16.00;75.70;;;;;;5166829;28;20433;-50
2022/06/22 01:45:32;;;;;;;2.63;1.10;;;16.00;76.10;;;;;;5166503;28;20192;-49
2022/06/22 01:48:15;;;;;;;4.07;1.70;;;15.90;76.60;;;;;;5173061;28;20487;-49
2022/06/22 01:50:55;;;;;;;1.43;1.33;;;15.90;77.50;;;;;;5159702;28;20476;-49
2022/06/22 01:53:41;;;;;;;1.60;1.40;;;15.80;78.30;;;;;;5179837;28;21031;-50
2022/06/22 01:56:29;;;;;;;1.90;1.53;;;15.80;79.40;;;;;;5156184;28;20436;-50
2022/06/22 01:59:28;;;;;;;2.27;1.40;;;15.70;81.10;;;;;;5167651;28;20509;-49
2022/06/22 02:02:08;;;;;;;3.17;1.63;;;15.70;82.20;;;;;;5170878;28;20444;-49
2022/06/22 02:04:52;;;;;;;2.80;1.40;;;15.60;83.30;;;;;;5158403;28;20460;-49
2022/06/22 02:07:50;;;;;;;3.50;1.60;;;15.60;84.20;;;;;;5154650;28;20463;-50
2022/06/22 02:10:42;;;;;;;2.80;1.77;;;15.60;85.10;;;;;;5165453;28;20444;-49
2022/06/22 02:13:19;;;;;;;3.40;1.50;;;15.60;85.90;;;;;;5151936;28;20467;-49
2022/06/22 02:16:14;;;;;;;1.53;1.43;;;15.50;87.10;;;;;;5162640;28;20933;-49
2022/06/22 02:18:50;;;;;;;3.13;1.40;;;15.50;88.70;;;;;;5167356;28;20463;-50
2022/06/22 02:21:31;;;;;;;1.67;1.47;;;15.50;90.20;;;;;;5166861;28;20444;-49
2022/06/22 02:24:13;;;;;;;1.93;1.80;;;15.40;91.20;;;;;;5167765;28;20436;-49
2022/06/22 02:26:56;;;;;;;2.30;1.60;;;15.40;92.00;;;;;;5166049;28;20455;-49
2022/06/22 02:29:33;;;;;;;11.90;2.27;;;15.40;92.60;;;;;;5160474;28;20436;-49
2022/06/22 02:32:10;;;;;;;2.17;1.67;;;15.30;93.80;;;;;;5163859;28;20435;-49
2022/06/22 02:34:46;;;;;;;3.60;1.83;;;15.30;94.40;;;;;;5161167;28;20450;-49
2022/06/22 02:37:19;;;;;;;2.10;1.20;;;15.20;95.80;;;;;;5174441;28;20463;-49
2022/06/22 02:40:20;;;;;;;2.00;1.90;;;15.20;96.40;;;;;;5142721;28;20451;-49
2022/06/22 02:45:42;;;;;;;2.07;1.63;;;15.20;97.00;;;;;;5164813;28;20593;-47
2022/06/22 02:48:16;;;;;;;1.13;1.13;;;15.10;98.30;;;;;;5155000;28;20483;-50
2022/06/22 02:51:06;;;;;;;1.77;1.67;;;15.10;99.90;;;;;;5163355;28;20818;-49
2022/06/22 02:53:39;;;;;;;3.13;1.57;;;15.10;99.90;;;;;;5161689;28;20440;-49
2022/06/22 02:56:28;;;;;;;2.80;1.30;;;15.10;99.90;;;;;;5167626;28;20450;-49
2022/06/22 02:58:59;;;;;;;1.57;1.40;;;15.00;99.90;;;;;;5158878;28;20514;-50
2022/06/22 03:01:33;;;;;;;1.83;1.80;;;15.00;99.90;;;;;;5159695;28;20952;-50
2022/06/22 03:04:11;;;;;;;1.70;1.60;;;15.00;99.90;;;;;;5160491;28;20187;-50
2022/06/22 03:06:46;;;;;;;2.33;1.80;;;15.00;99.90;;;;;;5160170;28;20471;-49
2022/06/22 03:09:17;;;;;;;2.93;1.70;;;15.00;99.90;;;;;;5165804;28;20558;-49
2022/06/22 03:11:53;;;;;;;4.73;1.87;;;15.00;99.90;;;;;;5169079;28;20505;-49
2022/06/22 03:14:31;;;;;;;2.50;1.77;;;15.00;99.90;;;;;;5166887;28;20468;-49
2022/06/22 03:17:05;;;;;;;3.23;1.77;;;15.10;99.90;;;;;;5159809;28;20510;-48
2022/06/22 03:20:06;;;;;;;1.80;1.70;;;15.10;99.90;;;;;;5160874;28;20475;-50
2022/06/22 03:22:43;;;;;;;6.60;2.10;;;15.10;99.90;;;;;;5148607;28;20542;-49
2022/06/22 03:25:34;;;;;;;2.30;1.73;;;15.10;99.90;;;;;;5141454;28;20494;-50
2022/06/22 03:28:12;;;;;;;2.43;2.17;;;15.20;99.90;;;;;;5161582;28;20564;-49
2022/06/22 03:30:54;;;;;;;7.00;2.00;;;15.30;99.90;;;;;;5162250;28;20469;-50
2022/06/22 03:33:34;;;;;;;3.43;2.47;;;15.30;99.90;;;;;;5154123;28;20433;-50
2022/06/22 03:36:12;;;;;;;2.73;2.00;;;15.40;99.90;;;;;;5141975;28;20487;-48
2022/06/22 03:38:55;;;;;;;4.97;1.73;;;15.40;99.90;;;;;;5161618;28;20463;-49
2022/06/22 03:41:30;;;;;;;2.40;2.30;;;15.50;99.90;;;;;;5166535;28;20474;-49
2022/06/22 03:44:05;;;;;;;3.53;2.27;;;15.50;99.90;;;;;;5170910;28;20430;-49
2022/06/22 03:46:42;;;;;;;4.40;2.00;;;15.60;99.90;;;;;;5159665;28;20463;-49
2022/06/22 03:49:34;;;;;;;5.93;2.50;;;15.60;99.90;;;;;;5161817;28;20448;-49
2022/06/22 03:52:14;;;;;;;2.17;1.77;;;15.70;99.90;;;;;;5159283;28;20515;-49
2022/06/22 03:54:59;;;;;;;6.17;2.13;;;15.60;99.90;;;;;;5157002;28;20439;-49
2022/06/22 03:57:35;;;;;;;1.93;1.83;;;15.70;99.90;;;;;;5159610;28;20465;-49
2022/06/22 04:00:08;;;;;;;3.33;1.90;;;15.70;99.90;;;;;;5163015;28;20440;-49
2022/06/22 04:02:40;;;;;;;2.93;2.43;;;15.80;99.90;;;;;;5178648;28;20454;-49
2022/06/22 04:05:17;;;;;;;2.10;1.60;;;15.80;99.90;;;;;;5166223;28;20476;-49
2022/06/22 04:07:49;;;;;;;2.00;1.80;;;15.80;99.90;;;;;;5165832;28;20470;-49
2022/06/22 04:10:44;;;;;;;2.40;1.80;;;15.80;99.90;;;;;;5156491;28;20443;-49
2022/06/22 04:13:22;;;;;;;2.30;1.90;;;15.90;99.90;;;;;;5153643;28;20443;-49
2022/06/22 04:16:17;;;;;;;6.30;1.60;;;15.90;99.90;;;;;;5149428;28;20444;-49
2022/06/22 04:19:11;;;;;;;2.67;1.60;;;15.90;99.90;;;;;;5146070;28;20473;-49
2022/06/22 04:21:48;;;;;;;6.43;2.30;;;16.10;99.90;;;;;;5160931;28;20468;-49
2022/06/22 04:24:31;;;;;;;1.83;1.70;;;16.30;99.90;;;;;;5158017;28;20441;-49
2022/06/22 04:27:11;;;;;;;8.53;2.97;;;16.50;99.40;;;;;;5156879;28;20478;-49
2022/06/22 04:29:53;;;;;;;3.33;2.17;;;16.70;99.00;;;;;;5165014;28;21204;-48
2022/06/22 04:33:01;;;;;;;6.73;2.33;;;16.90;97.90;;;;;;5168400;28;20443;-49
2022/06/22 04:35:53;;;;;;;2.00;1.80;;;17.20;97.00;;;;;;5164869;28;21118;-48
2022/06/22 04:38:30;;;;;;;3.23;1.57;;;17.60;95.90;;;;;;5155494;28;20991;-49
2022/06/22 04:41:18;;;;;;;2.23;2.13;;;17.60;94.90;;;;;;5159311;28;20448;-50
2022/06/22 04:43:50;;;;;;;3.60;1.83;;;17.90;94.40;;;;;;5162802;28;20509;-49
2022/06/22 04:46:27;;;;;;;2.00;1.90;;;18.20;93.10;;;;;;5150936;28;20455;-49
2022/06/22 04:49:03;;;;;;;2.00;1.87;;;18.60;92.00;;;;;;5148405;28;20456;-50
2022/06/22 04:51:37;;;;;;;2.63;2.47;;;19.20;90.20;;;;;;5156280;28;20437;-49
2022/06/22 04:54:25;;;;;;;2.37;2.17;;;20.00;84.80;;;;;;5156290;28;20955;-50
2022/06/22 04:56:58;;;;;;;6.73;2.60;;;21.30;77.90;;;;;;5169428;28;20455;-50
2022/06/22 04:59:31;;;;;;;4.60;1.60;;;22.80;67.70;;;;;;5157373;28;20447;-49
2022/06/22 05:02:06;;;;;;;2.17;1.57;;;24.40;59.30;;;;;;5152074;28;20444;-50
2022/06/22 05:04:42;;;;;;;5.83;2.60;;;26.00;52.10;;;;;;5165421;28;20475;-49
2022/06/22 05:07:27;;;;;;;4.27;1.70;;;27.90;47.80;;;;;;5165880;28;20478;-50
2022/06/22 05:10:10;;;;;;;1.77;1.67;;;29.80;42.00;;;;;;5166368;28;20476;-50
2022/06/22 05:12:59;;;;;;;3.40;2.00;;;31.50;39.40;;;;;;5161834;28;20437;-50
2022/06/22 05:15:37;;;;;;;5.27;2.20;;;33.00;35.10;;;;;;5163720;28;20482;-51
2022/06/22 05:18:15;;;;;;;2.20;1.60;;;33.70;33.20;;;;;;5166640;28;20204;-51
2022/06/22 05:20:56;;;;;;;2.50;2.30;;;34.40;31.90;;;;;;5157378;28;20188;-51
2022/06/22 05:23:29;;;;;;;1.77;1.65;;;35.20;30.60;;;;;;5161062;28;20282;-50
2022/06/22 05:26:04;;;;;;;8.80;2.28;;;35.90;29.50;;;;;;5165283;28;20181;-50
2022/06/22 05:29:11;;;;;;;1.60;1.35;;;36.10;28.70;;;;;;5162651;28;20326;-50
2022/06/22 05:31:54;;;;;;;1.70;1.65;;;36.70;28.50;;;;;;5145067;28;20188;-51
2022/06/22 05:34:33;;;;;;;1.95;1.63;;;36.80;28.10;;;;;;5163250;28;20283;-51
2022/06/22 05:37:28;;;;;;;4.22;2.50;;;37.20;27.70;;;;;;5161815;28;20208;-52
2022/06/22 05:39:59;;;;;;;2.78;2.03;;;37.80;26.80;;;;;;5159653;28;20188;-50
2022/06/22 05:42:31;;;;;;;3.10;1.75;;;37.90;26.80;;;;;;5162900;28;20188;-51
2022/06/22 05:45:04;;;;;;;2.28;2.08;;;38.50;26.40;;;;;;5153878;28;20656;-52
2022/06/22 05:47:34;;;;;;;2.78;1.70;;;39.10;25.70;;;;;;5156021;28;20220;-52
2022/06/22 05:50:24;;;;;;;3.60;3.00;;;39.50;24.80;;;;;;5163202;28;20188;-51
2022/06/22 05:53:12;;;;;;;3.30;2.45;;;39.30;24.90;;;;;;5164270;28;20189;-52
2022/06/22 05:56:15;;;;;;;2.15;1.98;;;39.50;25.00;;;;;;5161216;28;20180;-51
2022/06/22 05:58:55;;;;;;;5.68;2.30;;;39.70;24.60;;;;;;5161774;28;20199;-52
2022/06/22 06:01:45;;;;;;;6.90;2.85;;;39.80;24.60;;;;;;5163208;28;20250;-51
2022/06/22 06:04:38;;;;;;;3.60;2.53;;;39.80;24.10;;;;;;5160541;28;20185;-53
2022/06/22 06:07:23;;;;;;;2.45;2.10;;;39.20;24.40;;;;;;5161680;28;20258;-51
2022/06/22 06:09:56;;;;;;;2.55;2.40;;;39.60;24.00;;;;;;5152060;28;20312;-51
2022/06/22 06:12:37;;;;;;;6.38;1.60;;;39.60;24.20;;;;;;5158444;28;20266;-51
2022/06/22 06:15:11;;;;;;;2.33;2.22;;;40.00;23.90;;;;;;5162524;28;20185;-51
2022/06/22 06:17:47;;;;;;;3.67;1.67;;;40.50;23.70;;;;;;5142471;28;20227;-52
2022/06/22 06:20:29;;;;;;;2.17;1.95;;;40.90;23.00;;;;;;5166583;28;20199;-51
2022/06/22 06:23:06;;;;;;;6.28;2.15;;;41.00;22.90;;;;;;5165333;28;20180;-53
2022/06/22 06:28:39;;;;;;;9.48;2.03;;;40.80;22.70;;;;;;5163193;28;20672;-51
2022/06/22 06:31:23;;;;;;;4.53;2.20;;;40.90;22.30;;;;;;5159367;28;20242;-53
2022/06/22 06:33:56;;;;;;;3.67;2.33;;;40.90;22.00;;;;;;5160459;28;20177;-51
2022/06/22 06:36:35;;;;;;;6.57;2.03;;;40.60;22.70;;;;;;5168044;28;20180;-52
2022/06/22 06:39:12;;;;;;;4.00;2.17;;;40.20;22.10;;;;;;5165052;28;20211;-52
2022/06/22 06:42:03;;;;;;;2.28;1.58;;;40.60;21.70;;;;;;5157372;28;20180;-53
2022/06/22 06:44:42;;;;;;;3.55;3.35;;;41.00;21.80;;;;;;5162252;28;20188;-52
2022/06/22 06:47:24;;;;;;;5.70;1.67;;;42.00;21.00;;;;;;5159591;28;20232;-51
2022/06/22 06:50:03;;;;;;;2.72;2.13;;;41.70;20.50;;;;;;5162680;28;20209;-52
2022/06/22 06:52:50;;;;;;;1.77;1.67;;;41.10;20.80;;;;;;5159923;28;20226;-51
2022/06/22 06:55:48;;;;;;;2.10;1.70;;;40.40;21.30;;;;;;5160261;28;20208;-50
2022/06/22 06:58:42;;;;;;;2.63;1.38;;;40.90;20.00;;;;;;5163202;28;20200;-51
2022/06/22 07:01:20;;;;;;;3.90;1.77;;;39.00;21.00;;;;;;5160360;28;20173;-51
2022/06/22 07:03:58;;;;;;;4.30;1.75;;;39.70;21.20;;;;;;5163420;28;20267;-51
2022/06/22 07:06:30;;;;;;;5.97;1.33;;;40.30;20.50;;;;;;5154969;28;20188;-49
2022/06/22 07:09:17;;;;;;;2.97;1.85;;;40.80;20.30;;;;;;5160059;28;20688;-50
2022/06/22 07:11:52;;;;;;;4.47;1.30;;;41.50;19.70;;;;;;5156538;28;20184;-51
2022/06/22 07:14:30;;;;;;;3.67;1.27;;;42.10;19.40;;;;;;5154372;28;20180;-50
2022/06/22 07:17:15;;;;;;;3.30;1.75;;;42.20;19.40;;;;;;5163022;28;20200;-53
2022/06/22 07:19:49;;;;;;;1.95;1.73;;;42.50;18.80;;;;;;5162043;28;20343;-50
2022/06/22 07:22:26;;;;;;;1.35;1.35;;;42.40;18.80;;;;;;5160563;28;20200;-50
2022/06/22 07:25:12;;;;;;;5.47;1.75;;;41.50;19.20;;;;;;5171652;28;20875;-51
2022/06/22 07:28:13;;;;;;;4.50;1.60;;;41.90;19.50;;;;;;5160327;28;20216;-51
2022/06/22 07:30:51;;;;;;;2.05;1.83;;;42.80;19.00;;;;;;5157935;28;20591;-50
2022/06/22 07:33:32;;;;;;;2.95;1.60;;;42.90;18.70;;;;;;5160861;28;20183;-51
2022/06/22 07:36:06;;;;;;;5.85;1.67;;;41.80;18.60;;;;;;5155845;28;20188;-51
2022/06/22 07:39:16;;;;;;;3.13;1.90;;;41.40;19.50;;;;;;5158872;28;20533;-49
2022/06/22 07:41:47;;;;;;;3.03;1.83;;;41.00;19.10;;;;;;5158295;28;20251;-50
2022/06/22 07:44:23;;;;;;;2.30;1.70;;;40.70;20.10;;;;;;5161770;28;20188;-51
2022/06/22 07:47:08;;;;;;;2.72;1.67;;;41.10;19.50;;;;;;5162897;28;20307;-50
2022/06/22 07:49:53;;;;;;;2.50;1.77;;;41.30;19.20;;;;;;5160877;28;20188;-49
2022/06/22 07:52:37;;;;;;;1.75;1.63;;;41.70;19.20;;;;;;5155295;28;20250;-48
2022/06/22 07:55:57;;;;;;;5.05;2.25;;;41.20;19.30;;;;;;5160506;28;20244;-48
2022/06/22 07:58:30;;;;;;;3.03;2.00;;;40.40;19.90;;;;;;5157211;28;20334;-50
2022/06/22 08:01:08;;;;;;;1.77;1.33;;;40.40;20.00;;;;;;5160112;28;20268;-50
2022/06/22 08:04:02;;;;;;;1.52;1.42;;;40.90;19.80;;;;;;5167042;28;20588;-48
2022/06/22 08:06:47;;;;;;;1.40;1.30;;;41.50;19.80;;;;;;5168125;28;20210;-50
2022/06/22 08:09:23;;;;;;;0.93;0.90;;;41.50;18.80;;;;;;5167095;28;20188;-48
2022/06/22 08:12:04;;;;;;;6.80;1.33;;;41.30;19.00;;;;;;5165661;28;20242;-51
2022/06/22 08:14:43;;;;;;;2.65;1.10;;;41.30;19.20;;;;;;5163257;28;20215;-49
2022/06/22 08:17:31;;;;;;;2.60;1.33;;;39.70;19.40;;;;;;5156239;28;20685;-50
2022/06/22 08:20:02;;;;;;;1.10;0.90;;;38.90;20.10;;;;;;5164218;28;20319;-49
2022/06/22 08:22:33;;;;;;;5.68;2.15;;;39.20;20.20;;;;;;5161315;28;20193;-50
2022/06/22 08:25:06;;;;;;;1.40;1.35;;;39.60;20.20;;;;;;5155724;28;20200;-49
2022/06/22 08:27:37;;;;;;;4.30;3.15;;;39.40;19.90;;;;;;5155672;28;20300;-50
2022/06/22 08:30:09;;;;;;;5.43;2.28;;;39.20;20.50;;;;;;5164532;28;20204;-50
2022/06/22 08:32:53;;;;;;;2.15;1.60;;;39.30;20.30;;;;;;5161789;28;20668;-50
2022/06/22 08:35:41;;;;;;;3.50;1.35;;;39.60;20.30;;;;;;5156876;28;20275;-50
2022/06/22 08:38:25;;;;;;;2.40;1.60;;;39.30;19.50;;;;;;5161030;28;20583;-50
2022/06/22 08:41:33;;;;;;;4.88;1.60;;;38.70;20.10;;;;;;5162587;28;20200;-51
2022/06/22 08:44:20;;;;;;;2.90;1.33;;;37.90;21.00;;;;;;5164887;28;20640;-49
2022/06/22 08:47:10;;;;;;;2.65;1.20;;;38.10;21.00;;;;;;5162308;28;20208;-50
2022/06/22 08:50:09;;;;;;;1.90;1.67;;;38.50;20.90;;;;;;5161286;28;20184;-51
2022/06/22 08:52:45;;;;;;;3.72;1.48;;;38.80;21.10;;;;;;5160246;28;20275;-50
2022/06/22 08:55:34;;;;;;;1.63;1.40;;;38.00;21.00;;;;;;5170146;28;20188;-51
2022/06/22 08:58:07;;;;;;;2.55;1.48;;;35.90;22.60;;;;;;5163004;28;20208;-50
2022/06/22 09:00:53;;;;;;;2.67;1.55;;;33.60;24.40;;;;;;5163212;28;20192;-48
2022/06/22 09:03:31;;;;;;;2.03;1.30;;;31.90;25.50;;;;;;5168407;28;20250;-49
2022/06/22 09:06:21;;;;;;;2.13;1.60;;;30.60;27.20;;;;;;5158871;28;20195;-49
2022/06/22 09:09:28;;;;;;;5.50;1.43;;;29.70;28.40;;;;;;5163158;28;20224;-49
2022/06/22 09:12:11;;;;;;;6.63;1.33;;;28.90;28.80;;;;;;5166267;28;20251;-51
2022/06/22 09:15:22;;;;;;;1.63;1.60;;;28.20;28.60;;;;;;5152759;28;20475;-51
2022/06/22 09:17:55;;;;;;;2.30;1.40;;;27.90;29.20;;;;;;5159468;28;20468;-49
2022/06/22 09:20:49;;;;;;;4.57;1.43;;;27.90;30.00;;;;;;5151480;28;20814;-48
2022/06/22 09:23:30;;;;;;;4.53;1.70;;;27.90;29.50;;;;;;5163766;28;20582;-49
2022/06/22 09:26:13;;;;;;;3.33;2.10;;;27.80;29.60;;;;;;5163294;28;20445;-48
2022/06/22 09:28:55;;;;;;;3.00;2.10;;;28.00;29.40;;;;;;5157450;28;20534;-51
2022/06/22 09:31:50;;;;;;;8.50;4.70;;;27.60;28.70;;;;;;5161978;28;20938;-52
2022/06/22 09:34:44;;;;;;;7.80;2.10;;;27.60;29.70;;;;;;5159009;28;20447;-50
2022/06/22 09:37:34;;;;;;;2.00;1.00;;;27.60;29.90;;;;;;5158877;28;20456;-51
2022/06/22 09:40:24;;;;;;;2.00;1.47;;;27.00;28.10;;;;;;5155463;28;20475;-52
2022/06/22 09:42:56;;;;;;;2.50;2.30;;;26.80;29.60;;;;;;5160325;28;20459;-51
2022/06/22 09:45:35;;;;;;;7.10;1.63;;;26.70;29.10;;;;;;5163137;28;20448;-50
2022/06/22 09:48:43;;;;;;;4.30;2.03;;;26.70;29.00;;;;;;5155896;28;20905;-52
2022/06/22 09:51:54;;;;;;;2.30;1.60;;;26.70;29.50;;;;;;5168506;28;20536;-49
2022/06/22 09:57:29;;;;;;;3.50;2.03;;;27.10;29.90;;;;;;5151335;28;20535;-50
2022/06/22 10:00:29;;;;;;;6.83;1.53;;;27.20;29.80;;;;;;5159587;28;20443;-50
2022/06/22 10:03:17;;;;;;;9.23;2.77;;;27.10;29.60;;;;;;5169361;28;20470;-50
2022/06/22 10:06:03;;;;;;;3.00;1.90;;;27.10;28.30;;;;;;5155974;28;20452;-50
2022/06/22 10:08:57;;;;;;;2.27;1.00;;;26.70;28.90;;;;;;5168679;28;20476;-49
2022/06/22 10:11:45;;;;;;;0.80;0.80;;;26.50;30.00;;;;;;5162498;28;20455;-50
2022/06/22 10:14:46;;;;;;;2.97;1.27;;;26.60;30.90;;;;;;5161674;28;20432;-48
2022/06/22 10:18:09;;;;;;;1.23;1.13;;;26.60;30.80;;;;;;5164000;28;20471;-48
2022/06/22 10:20:40;;;;;;;1.70;1.20;;;26.60;31.30;;;;;;5133731;28;20495;-49
2022/06/22 10:23:27;;;;;;;2.07;1.93;;;26.60;31.40;;;;;;5162385;28;20468;-50
2022/06/22 10:26:17;;;;;;;1.53;1.43;;;26.60;31.20;;;;;;5154543;28;20185;-50
2022/06/22 10:29:21;;;;;;;1.30;1.20;;;26.30;31.00;;;;;;5166489;28;21018;-50
2022/06/22 10:32:40;;;;;;;5.07;2.70;;;26.10;31.20;;;;;;5163902;28;20901;-49
2022/06/22 10:35:37;;;;;;;7.30;4.53;;;25.90;30.70;;;;;;5118429;28;20444;-51
2022/06/22 10:38:29;;;;;;;5.07;2.93;;;25.80;31.30;;;;;;5170705;28;20538;-49
2022/06/22 10:47:55;;;;;;;2.83;1.93;;;25.90;31.50;;;;;;5152432;28;20552;-49
2022/06/22 10:50:49;;;;;;;5.93;2.70;;;25.90;32.40;;;;;;5155806;28;20937;-50
2022/06/22 10:53:45;;;;;;;2.03;1.63;;;26.00;32.30;;;;;;5158887;28;20434;-50
2022/06/22 10:56:34;;;;;;;1.23;1.03;;;26.00;31.50;;;;;;5163590;28;20443;-50
2022/06/22 10:59:20;;;;;;;1.07;1.07;;;25.80;30.90;;;;;;5165106;28;20452;-52
2022/06/22 11:02:09;;;;;;;1.40;1.30;;;25.60;30.60;;;;;;5170436;28;20429;-49
2022/06/22 11:04:50;;;;;;;1.00;0.93;;;25.60;31.20;;;;;;5162961;28;20433;-51
2022/06/22 11:07:21;;;;;;;1.30;1.20;;;25.80;31.40;;;;;;5163089;28;20475;-49
2022/06/22 11:10:17;;;;;;;9.13;1.30;;;25.80;30.00;;;;;;5166782;28;20972;-51
2022/06/22 11:13:15;;;;;;;4.13;1.37;;;25.80;30.20;;;;;;5155050;28;20189;-50
2022/06/22 11:16:30;;;;;;;1.63;1.53;;;25.80;31.20;;;;;;5163120;28;20471;-52
2022/06/22 11:19:21;;;;;;;2.83;1.73;;;25.90;31.30;;;;;;5155661;28;21030;-50
2022/06/22 11:22:16;;;;;;;2.20;1.20;;;25.90;31.40;;;;;;5162779;28;20432;-50
2022/06/22 11:24:58;;;;;;;2.30;1.30;;;26.10;32.20;;;;;;5164865;28;20472;-50
2022/06/22 11:30:56;;;;;;;3.90;1.53;;;26.00;32.60;;;;;;5156427;28;20428;-53
2022/06/22 11:33:46;;;;;;;3.60;1.77;;;26.10;32.80;;;;;;5164126;28;20444;-51
2022/06/22 11:36:27;;;;;;;1.10;1.00;;;26.20;32.10;;;;;;5168753;28;20567;-49
2022/06/22 11:39:22;;;;;;;2.07;1.40;;;26.40;31.80;;;;;;5168323;28;20521;-50
2022/06/22 11:42:26;;;;;;;0.87;0.87;;;26.70;31.90;;;;;;5185488;28;20436;-49
2022/06/22 11:45:50;;;;;;;1.90;1.13;;;26.80;30.80;;;;;;5169920;28;20432;-49
2022/06/22 11:48:54;;;;;;;5.93;1.67;;;26.60;30.40;;;;;;5127146;28;20481;-50
2022/06/22 11:51:38;;;;;;;6.10;1.73;;;26.20;30.50;;;;;;5184294;28;20459;-52
2022/06/22 11:54:33;;;;;;;6.60;1.43;;;26.20;31.20;;;;;;5173570;28;20439;-50
2022/06/22 11:57:34;;;;;;;2.77;1.50;;;26.20;31.00;;;;;;5170395;28;20462;-50
2022/06/22 12:00:10;;;;;;;1.57;1.30;;;26.10;31.30;;;;;;5170377;28;20447;-49
2022/06/22 12:03:05;;;;;;;3.70;1.60;;;26.00;31.20;;;;;;5169670;28;20443;-48
2022/06/22 12:05:58;;;;;;;5.40;1.87;;;25.90;31.30;;;;;;5170498;28;20452;-48
2022/06/22 12:08:39;;;;;;;1.53;1.17;;;25.90;31.60;;;;;;5173753;28;20472;-48
2022/06/22 12:11:19;;;;;;;1.33;1.33;;;26.00;31.70;;;;;;5160138;28;20516;-49
2022/06/22 12:17:32;;;;;;;1.10;1.03;;;26.30;31.60;;;;;;5169220;28;20505;-49
2022/06/22 12:20:46;;;;;;;1.40;1.00;;;26.40;31.20;;;;;;5164174;28;20440;-48
2022/06/22 12:23:25;;;;;;;4.90;1.10;;;26.70;30.20;;;;;;5146880;28;20924;-52
2022/06/22 12:26:21;;;;;;;1.57;1.40;;;26.60;30.10;;;;;;5169260;28;20447;-52
2022/06/22 12:29:05;;;;;;;2.47;1.10;;;26.60;30.10;;;;;;5159041;28;20497;-50
2022/06/22 12:31:41;;;;;;;2.47;1.47;;;26.60;29.90;;;;;;5166934;28;20595;-49
2022/06/22 12:34:35;;;;;;;1.60;1.13;;;26.50;28.80;;;;;;5167329;28;20423;-49
2022/06/22 12:37:14;;;;;;;1.80;0.87;;;26.40;28.90;;;;;;5170367;28;20459;-50
2022/06/22 12:39:54;;;;;;;2.87;1.70;;;26.40;29.50;;;;;;5153169;28;20859;-50
2022/06/22 12:43:14;;;;;;;0.70;0.60;;;26.50;29.80;;;;;;5168293;28;20439;-49
2022/06/22 12:45:55;;;;;;;4.63;1.00;;;26.50;29.70;;;;;;5165737;28;20870;-50
2022/06/22 12:48:37;;;;;;;2.20;1.60;;;26.60;29.50;;;;;;5166308;28;20475;-50
2022/06/22 12:51:15;;;;;;;8.67;1.20;;;26.60;29.30;;;;;;5164120;28;20472;-50
2022/06/22 12:53:53;;;;;;;1.33;1.00;;;26.50;29.50;;;;;;5166559;28;20567;-50
2022/06/22 12:56:45;;;;;;;4.20;1.40;;;26.50;29.70;;;;;;5164421;28;20485;-51
2022/06/22 12:59:34;;;;;;;3.30;1.60;;;26.50;30.20;;;;;;5165040;28;20448;-48
2022/06/22 13:02:12;;;;;;;1.83;1.43;;;26.40;30.10;;;;;;5163155;28;20443;-49
2022/06/22 13:04:45;;;;;;;14.20;1.53;;;26.50;30.80;;;;;;5161924;28;20820;-51
2022/06/22 13:07:19;;;;;;;4.70;1.23;;;26.50;30.60;;;;;;5162842;28;20464;-50
2022/06/22 13:09:50;;;;;;;10.80;2.23;;;26.60;30.30;;;;;;5168484;28;20463;-50
2022/06/22 13:12:43;;;;;;;1.33;1.33;;;26.60;30.50;;;;;;5162473;28;20440;-49
2022/06/22 13:15:33;;;;;;;0.90;0.90;;;26.40;30.00;;;;;;5165539;28;20189;-51
2022/06/22 13:18:20;;;;;;;1.90;1.33;;;26.20;30.00;;;;;;5157447;28;20543;-49
2022/06/22 13:21:04;;;;;;;2.43;1.00;;;26.20;30.00;;;;;;5165895;28;20860;-50
2022/06/22 13:23:52;;;;;;;1.17;1.07;;;26.20;30.60;;;;;;5162252;28;20437;-51
2022/06/22 13:26:45;;;;;;;1.13;1.03;;;26.30;30.80;;;;;;5163553;28;20440;-49
2022/06/22 13:29:27;;;;;;;3.83;1.67;;;26.40;29.80;;;;;;5168830;28;20544;-50
2022/06/22 13:32:02;;;;;;;1.17;1.07;;;26.40;30.40;;;;;;5169417;28;20446;-49
2022/06/22 13:34:44;;;;;;;0.80;0.80;;;26.60;30.30;;;;;;5169246;28;20434;-49
2022/06/22 13:37:39;;;;;;;1.13;1.13;;;26.70;29.80;;;;;;5169404;28;20452;-48
2022/06/22 13:40:13;;;;;;;1.73;1.63;;;26.70;29.90;;;;;;5192375;23;20603;-48
2022/06/22 13:42:57;;;;;;;5.00;1.10;;;26.70;29.80;;;;;;5182455;28;20443;-47
2022/06/22 13:45:39;;;;;;;5.17;1.40;;;26.70;29.60;;;;;;5183664;28;20435;-48
2022/06/22 13:48:18;;;;;;;4.60;1.23;;;26.60;29.40;;;;;;5191994;28;20474;-47
2022/06/22 13:51:18;;;;;;;1.43;1.10;;;26.60;29.30;;;;;;5183119;28;20459;-48
2022/06/22 13:54:31;;;;;;;2.10;1.20;;;26.60;29.50;;;;;;5176239;28;20969;-47
2022/06/22 13:57:08;;;;;;;1.20;1.20;;;26.60;29.80;;;;;;5181889;28;20461;-47
2022/06/22 13:59:58;;;;;;;3.53;1.43;;;26.70;29.50;;;;;;5183114;28;20529;-48
2022/06/22 14:02:45;;;;;;;2.30;1.50;;;26.90;30.00;;;;;;5170465;28;20523;-49
2022/06/22 14:05:47;;;;;;;1.30;1.30;;;27.00;29.60;;;;;;5181350;28;20427;-48
2022/06/22 14:08:35;;;;;;;5.50;1.57;;;26.90;29.20;;;;;;5185560;28;20974;-49
2022/06/22 14:11:27;;;;;;;1.73;1.30;;;27.00;29.40;;;;;;5191258;28;20973;-47
2022/06/22 14:14:01;;;;;;;5.63;2.30;;;27.00;29.80;;;;;;5174308;28;20427;-47
2022/06/22 14:16:49;;;;;;;3.13;1.37;;;27.00;29.10;;;;;;5182966;28;20431;-47
2022/06/22 14:19:35;;;;;;;1.10;1.00;;;26.90;29.00;;;;;;5183926;28;20423;-48
2022/06/22 14:22:17;;;;;;;1.27;1.23;;;26.90;29.20;;;;;;5178967;28;20525;-48
2022/06/22 14:24:49;;;;;;;1.30;1.30;;;26.70;29.50;;;;;;5178411;28;20439;-47
2022/06/22 14:27:41;;;;;;;2.97;2.77;;;26.70;30.10;;;;;;5176610;28;20788;-48
2022/06/22 14:30:23;;;;;;;1.40;1.30;;;26.70;30.00;;;;;;5168452;28;20467;-48
2022/06/22 14:33:21;;;;;;;1.90;1.20;;;26.70;29.80;;;;;;5179156;28;20438;-49
2022/06/22 14:36:25;;;;;;;5.90;4.37;;;26.70;30.10;;;;;;5175275;28;20490;-48
2022/06/22 14:39:01;;;;;;;1.70;1.70;;;26.80;29.60;;;;;;5177487;28;20434;-48
2022/06/22 14:41:38;;;;;;;2.13;1.40;;;26.80;29.40;;;;;;5181321;28;20832;-48
2022/06/22 14:44:32;;;;;;;1.10;0.93;;;26.90;29.70;;;;;;5177581;28;20434;-48
2022/06/22 14:47:18;;;;;;;1.47;1.40;;;26.80;28.90;;;;;;5176303;28;20466;-48
2022/06/22 14:50:11;;;;;;;0.93;0.80;;;26.70;28.80;;;;;;5194093;28;20889;-47
2022/06/22 14:53:03;;;;;;;3.73;1.50;;;26.70;29.00;;;;;;5179723;28;20427;-47